INFORMACIÓN METAR y TAF
METAR FOR LERS
ADDS - METARS form results

(0329 UTC 15 November 2019)
Data provider http://aviationweather.gov/metar/data/
 
METAR text: LERS 150300Z AUTO 00000KT CAVOK 05/02 Q0999
Conditions at: LERS (REUS (CIV/MIL) , ES) observed 0300 UTC 15 November 2019
Temperature: 5.0°C (41°F)
Dewpoint: 2.0°C (36°F) [RH = 81%]
Pressure (altimeter): 29.50 inches Hg (999.0 mb)
Winds: calm
Visibility: 6 or more miles (10+ km)
Ceiling: ceiling and visibility are OK
Clouds: unknown
Weather: no significant weather observed at this time

METAR text: LERS 150230Z AUTO 00000KT CAVOK 06/02 Q0999
Conditions at: LERS (REUS (CIV/MIL) , ES) observed 0230 UTC 15 November 2019
Temperature: 6.0°C (43°F)
Dewpoint: 2.0°C (36°F) [RH = 75%]
Pressure (altimeter): 29.50 inches Hg (999.0 mb)
Winds: calm
Visibility: 6 or more miles (10+ km)
Ceiling: ceiling and visibility are OK
Clouds: unknown
Weather: no significant weather observed at this time

Forecast for: LERS (REUS (CIV/MIL) , ES)
Text: TAF LERS 150200Z 1503/1603 VRB04KT 9999 FEW040 TX13/1513Z TN03/1506Z
Forecast period: 0300 UTC 15 November 2019 to 0300 UTC 16 November 2019
Forecast type: FROM: standard forecast or significant change
Winds: variable direction winds at 5 MPH (4 knots; 2.1 m/s)
Visibility: 6 or more miles 10+ km)
Ceiling: at least 12,000 feet AGL
Clouds: few clouds at 4000 feet AGL
Weather: no significant weather forecast for this period
Text: PROB30
Forecast period: 0300 to 1000 UTC 15 November 2019
Forecast type: TEMPORARY: The following changes expected for less than half the time period
Winds: from the W (280 degrees) at 12 MPH (10 knots; 5.1 m/s)
Visibility: missing
Ceiling: unknown
Clouds: missing
Weather: no significant weather forecast for this period
Text: TEMPO 1503/1510 28010KT
Forecast period: 1000 to 1700 UTC 15 November 2019
Forecast type: TEMPORARY: The following changes expected for less than half the time period
Winds: from the W (280 degrees) at 14 MPH (12 knots; 6.2 m/s)
gusting to 25 MPH (22 knots; 11.3 m/s)
Visibility: missing
Ceiling: unknown
Clouds: missing
Weather: no significant weather forecast for this period

 MAPA DE AEROPUERTO

 INFORMACIÓN DE PISTA
Pista 07 Longitud 8054 ft Ancho 148 ft
Elevación 231 ft Umbral desplazado 853 ft Rumbo de pista 69
Pista 25 Longitud 8054 ft Ancho 148 ft
Elevación 234 ft Umbral desplazado 0 ft Rumbo de pista 249
Pista 12 Longitud 3117 ft Ancho 115 ft
Elevación 226 ft Umbral desplazado 0 ft Rumbo de pista 111
Pista 30 Longitud 3117 ft Ancho 115 ft
Elevación 198 ft Umbral desplazado 0 ft Rumbo de pista 291

 FRECUANCIAS DEL AEROPUERTO
Tipo APP Nombre APP Frecuencia 118.15 MHZ
Tipo GND Nombre GND Frecuencia 121.7 MHZ
Tipo TWR Nombre TWR Frecuencia 118.15 MHZ

 RADIO AYUDAS DEL AEROPUERTO
Tipo VOR-DME Nombre Reus Frecuencia 114200 KHZ
Tipo NDB Nombre Reus Frecuencia 424 KHZ




Powered by Virtual Airlines Manager